Time;durP1;ratioP1;P1;durP2;ratioP2;P2;SDS_P1;SDS_P2;PMS_P1;PMS_P2;Temp;Humidity;BMP_temperature;BMP_pressure;BME280_temperature;BME280_humidity;BME280_pressure;Samples;Min_cycle;Max_cycle;Signal;HPM_P1;HPM_P2
2021/04/23 00:00:28;;;;;;;;;;;;;;;;;;5055028;28;19912;-56
2021/04/23 00:02:54;;;;;;;;;;;;;;;;;;5055045;28;19958;-56
2021/04/23 00:05:20;;;;;;;;;;;;;;;;;;5054800;28;19917;-57
2021/04/23 00:07:46;;;;;;;;;;;;;;;;;;5055006;28;19916;-57
2021/04/23 00:10:12;;;;;;;;;;;;;;;;;;5055010;28;19904;-57
2021/04/23 00:12:37;;;;;;;;;;;;;;;;;;5054505;28;19916;-56
2021/04/23 00:15:03;;;;;;;;;;;;;;;;;;5054677;28;19920;-57
2021/04/23 00:17:29;;;;;;;;;;;;;;;;;;5055091;28;20283;-57
2021/04/23 00:19:55;;;;;;;;;;;;;;;;;;5054820;28;19901;-56
2021/04/23 00:22:21;;;;;;;;;;;;;;;;;;5054827;28;20375;-56
2021/04/23 00:24:48;;;;;;;;;;;;;;;;;;5044497;28;19909;-57
2021/04/23 00:27:13;;;;;;;;;;;;;;;;;;5034454;28;20252;-57
2021/04/23 00:29:39;;;;;;;;;;;;;;;;;;5032883;28;19928;-57
2021/04/23 00:32:05;;;;;;;;;;;;;;;;;;5034433;28;20359;-57
2021/04/23 00:34:31;;;;;;;;;;;;;;;;;;5034005;28;20326;-57
2021/04/23 00:36:57;;;;;;;;;;;;;;;;;;5030582;28;20363;-58
2021/04/23 00:39:23;;;;;;;;;;;;;;;;;;5035426;28;19966;-57
2021/04/23 00:41:49;;;;;;;;;;;;;;;;;;5034554;28;19991;-57
2021/04/23 00:44:15;;;;;;;;;;;;;;;;;;5033523;28;20009;-56
2021/04/23 00:46:41;;;;;;;;;;;;;;;;;;5033998;28;20391;-57
2021/04/23 00:49:07;;;;;;;;;;;;;;;;;;5026953;28;19940;-56
2021/04/23 00:51:33;;;;;;;;;;;;;;;;;;5033549;28;19916;-57
2021/04/23 00:53:59;;;;;;;;;;;;;;;;;;5033678;28;19913;-56
2021/04/23 00:56:24;;;;;;;;;;;;;;;;;;5033354;28;19905;-56
2021/04/23 00:58:50;;;;;;;;;;;;;;;;;;5033467;28;19905;-56
2021/04/23 01:01:16;;;;;;;;;;;;;;;;;;5033589;28;20284;-56
2021/04/23 01:03:43;;;;;;;;;;;;;;;;;;5031260;28;19964;-56
2021/04/23 01:06:09;;;;;;;;;;;;;;;;;;5021620;28;19921;-56
2021/04/23 01:08:35;;;;;;;;;;;;;;;;;;5030291;28;19909;-56
2021/04/23 01:11:01;;;;;;;;;;;;;;;;;;5033191;28;19905;-56
2021/04/23 01:13:31;;;;;;;;;;;;;;;;;;5033383;28;19912;-56
2021/04/23 01:15:56;;;;;;;;;;;;;;;;;;5028605;28;19917;-56
2021/04/23 01:18:22;;;;;;;;;;;;;;;;;;5033008;28;20363;-57
2021/04/23 01:20:48;;;;;;;;;;;;;;;;;;5033472;28;19905;-57
2021/04/23 01:23:14;;;;;;;;;;;;;;;;;;5033202;28;20390;-56
2021/04/23 01:25:40;;;;;;;;;;;;;;;;;;5033091;28;20379;-56
2021/04/23 01:28:06;;;;;;;;;;;;;;;;;;5032610;28;19905;-57
2021/04/23 01:30:32;;;;;;;;;;;;;;;;;;5032681;28;19983;-57
2021/04/23 01:32:58;;;;;;;;;;;;;;;;;;5034293;28;19915;-56
2021/04/23 01:35:24;;;;;;;;;;;;;;;;;;5032879;28;19928;-56
2021/04/23 01:37:50;;;;;;;;;;;;;;;;;;5032736;28;19909;-56
2021/04/23 01:40:16;;;;;;;;;;;;;;;;;;5027290;28;19909;-56
2021/04/23 01:42:42;;;;;;;;;;;;;;;;;;5032593;28;20011;-56
2021/04/23 01:45:08;;;;;;;;;;;;;;;;;;5032922;28;19909;-57
2021/04/23 01:47:34;;;;;;;;;;;;;;;;;;5032575;28;20004;-56
2021/04/23 01:49:59;;;;;;;;;;;;;;;;;;5032664;28;19995;-56
2021/04/23 01:52:25;;;;;;;;;;;;;;;;;;5032710;28;19905;-56
2021/04/23 01:54:51;;;;;;;;;;;;;;;;;;5032314;28;19920;-56
2021/04/23 01:57:17;;;;;;;;;;;;;;;;;;5032913;28;19916;-57
2021/04/23 01:59:45;;;;;;;;;;;;;;;;;;5030039;28;19921;-56
2021/04/23 02:02:11;;;;;;;;;;;;;;;;;;5032940;28;19912;-56
2021/04/23 02:04:37;;;;;;;;;;;;;;;;;;5024125;28;19948;-56
2021/04/23 02:07:03;;;;;;;;;;;;;;;;;;5032704;28;20283;-56
2021/04/23 02:09:29;;;;;;;;;;;;;;;;;;5033277;28;19943;-56
2021/04/23 02:11:55;;;;;;;;;;;;;;;;;;5032891;28;20248;-57
2021/04/23 02:14:21;;;;;;;;;;;;;;;;;;5033039;28;19917;-56
2021/04/23 02:16:46;;;;;;;;;;;;;;;;;;5033446;28;20240;-59
2021/04/23 02:19:12;;;;;;;;;;;;;;;;;;5035137;28;19999;-58
2021/04/23 02:21:40;;;;;;;;;;;;;;;;;;5019058;28;19944;-58
2021/04/23 02:24:06;;;;;;;;;;;;;;;;;;5036266;28;20927;-58
2021/04/23 02:26:31;;;;;;;;;;;;;;;;;;5035999;28;20011;-60
2021/04/23 02:28:57;;;;;;;;;;;;;;;;;;5036261;28;19909;-57
2021/04/23 02:31:23;;;;;;;;;;;;;;;;;;5034558;28;19951;-56
2021/04/23 02:33:49;;;;;;;;;;;;;;;;;;5030002;28;19913;-56
2021/04/23 02:36:15;;;;;;;;;;;;;;;;;;5027747;28;19955;-57
2021/04/23 02:38:41;;;;;;;;;;;;;;;;;;5032750;28;20256;-58
2021/04/23 02:41:07;;;;;;;;;;;;;;;;;;5032489;28;20027;-56
2021/04/23 02:43:33;;;;;;;;;;;;;;;;;;5033027;28;20367;-56
2021/04/23 02:45:59;;;;;;;;;;;;;;;;;;5032772;28;19959;-58
2021/04/23 02:48:25;;;;;;;;;;;;;;;;;;5033060;28;19944;-57
2021/04/23 02:50:51;;;;;;;;;;;;;;;;;;5033539;28;19905;-57
2021/04/23 02:53:16;;;;;;;;;;;;;;;;;;5035812;28;19909;-57
2021/04/23 02:55:42;;;;;;;;;;;;;;;;;;5037299;28;19959;-55
2021/04/23 02:58:08;;;;;;;;;;;;;;;;;;5030797;28;20051;-56
2021/04/23 03:00:34;;;;;;;;;;;;;;;;;;5036996;28;19940;-56
2021/04/23 03:03:00;;;;;;;;;;;;;;;;;;5037117;28;20436;-56
2021/04/23 03:05:26;;;;;;;;;;;;;;;;;;5029257;28;19927;-57
2021/04/23 03:07:53;;;;;;;;;;;;;;;;;;5038219;28;19919;-57
2021/04/23 03:10:19;;;;;;;;;;;;;;;;;;5037118;28;20003;-56
2021/04/23 03:12:45;;;;;;;;;;;;;;;;;;5035800;28;20000;-56
2021/04/23 03:15:10;;;;;;;;;;;;;;;;;;5035345;28;19966;-56
2021/04/23 03:17:36;;;;;;;;;;;;;;;;;;5035316;28;19909;-55
2021/04/23 03:20:04;;;;;;;;;;;;;;;;;;5035224;28;20490;-55
2021/04/23 03:22:29;;;;;;;;;;;;;;;;;;5035673;28;20412;-57
2021/04/23 03:24:55;;;;;;;;;;;;;;;;;;5035704;28;19909;-56
2021/04/23 03:27:21;;;;;;;;;;;;;;;;;;5035354;28;20367;-56
2021/04/23 03:29:47;;;;;;;;;;;;;;;;;;5035554;28;19916;-56
2021/04/23 03:32:13;;;;;;;;;;;;;;;;;;5035241;28;19905;-55
2021/04/23 03:34:39;;;;;;;;;;;;;;;;;;5027636;28;19925;-56
2021/04/23 03:37:05;;;;;;;;;;;;;;;;;;5038188;28;20256;-56
2021/04/23 03:39:31;;;;;;;;;;;;;;;;;;5039790;28;19905;-56
2021/04/23 03:41:57;;;;;;;;;;;;;;;;;;5040385;28;20106;-57
2021/04/23 03:44:23;;;;;;;;;;;;;;;;;;5040033;28;20532;-56
2021/04/23 03:46:49;;;;;;;;;;;;;;;;;;5036601;28;19912;-56
2021/04/23 03:49:15;;;;;;;;;;;;;;;;;;5035025;28;20367;-56
2021/04/23 03:51:41;;;;;;;;;;;;;;;;;;5035445;28;19905;-56
2021/04/23 03:54:06;;;;;;;;;;;;;;;;;;5035415;28;19959;-55
2021/04/23 03:56:32;;;;;;;;;;;;;;;;;;5035767;28;19915;-56
2021/04/23 03:58:58;;;;;;;;;;;;;;;;;;5035589;28;19995;-56
2021/04/23 04:01:25;;;;;;;;;;;;;;;;;;5035452;28;20326;-57
2021/04/23 04:03:50;;;;;;;;;;;;;;;;;;5035760;28;19967;-57
2021/04/23 04:06:16;;;;;;;;;;;;;;;;;;5037887;28;19921;-57
2021/04/23 04:08:42;;;;;;;;;;;;;;;;;;5037845;28;19912;-63
2021/04/23 04:11:08;;;;;;;;;;;;;;;;;;5036419;28;20275;-61
2021/04/23 04:13:34;;;;;;;;;;;;;;;;;;5037850;28;20351;-57
2021/04/23 04:16:00;;;;;;;;;;;;;;;;;;5037259;28;19917;-60
2021/04/23 04:18:26;;;;;;;;;;;;;;;;;;5039179;28;20414;-70
2021/04/23 04:20:52;;;;;;;;;;;;;;;;;;5031281;28;20326;-63
2021/04/23 04:23:18;;;;;;;;;;;;;;;;;;5037877;28;20379;-58
2021/04/23 04:25:44;;;;;;;;;;;;;;;;;;5036838;28;19913;-62
2021/04/23 04:28:10;;;;;;;;;;;;;;;;;;5037277;28;19905;-57
2021/04/23 04:30:36;;;;;;;;;;;;;;;;;;5034541;28;19912;-57
2021/04/23 04:33:02;;;;;;;;;;;;;;;;;;5034719;28;19996;-57
2021/04/23 04:35:28;;;;;;;;;;;;;;;;;;5034034;28;20445;-57
2021/04/23 04:37:53;;;;;;;;;;;;;;;;;;5029241;28;19913;-62
2021/04/23 04:40:19;;;;;;;;;;;;;;;;;;5025634;28;19913;-58
2021/04/23 04:42:45;;;;;;;;;;;;;;;;;;5027947;28;19912;-58
2021/04/23 04:45:11;;;;;;;;;;;;;;;;;;5029007;28;19905;-57
2021/04/23 04:47:37;;;;;;;;;;;;;;;;;;5034543;28;19915;-58
2021/04/23 04:50:03;;;;;;;;;;;;;;;;;;5034012;28;19905;-58
2021/04/23 04:52:29;;;;;;;;;;;;;;;;;;5036584;28;19912;-58
2021/04/23 04:54:55;;;;;;;;;;;;;;;;;;5036334;28;19913;-58
2021/04/23 04:57:21;;;;;;;;;;;;;;;;;;5036108;28;19905;-58
2021/04/23 04:59:47;;;;;;;;;;;;;;;;;;5036102;28;19905;-60
2021/04/23 05:02:13;;;;;;;;;;;;;;;;;;5035538;28;19905;-58
2021/04/23 05:04:39;;;;;;;;;;;;;;;;;;5034525;28;19940;-58
2021/04/23 05:07:05;;;;;;;;;;;;;;;;;;5034616;28;19917;-57
2021/04/23 05:09:30;;;;;;;;;;;;;;;;;;5034340;28;19905;-57
2021/04/23 05:11:56;;;;;;;;;;;;;;;;;;5034503;28;20382;-58
2021/04/23 05:14:22;;;;;;;;;;;;;;;;;;5031875;28;19948;-58
2021/04/23 05:16:50;;;;;;;;;;;;;;;;;;5034029;28;20000;-57
2021/04/23 05:19:16;;;;;;;;;;;;;;;;;;5033182;28;19905;-56
2021/04/23 05:21:42;;;;;;;;;;;;;;;;;;5033034;28;19912;-57
2021/04/23 05:24:08;;;;;;;;;;;;;;;;;;5033235;28;19995;-57
2021/04/23 05:26:34;;;;;;;;;;;;;;;;;;5033508;28;20319;-57
2021/04/23 05:29:00;;;;;;;;;;;;;;;;;;5033070;28;19964;-57
2021/04/23 05:31:25;;;;;;;;;;;;;;;;;;5032966;28;19962;-57
2021/04/23 05:33:51;;;;;;;;;;;;;;;;;;5029734;28;20010;-57
2021/04/23 05:36:17;;;;;;;;;;;;;;;;;;5035566;28;19913;-57
2021/04/23 05:38:43;;;;;;;;;;;;;;;;;;5034151;28;19905;-58
2021/04/23 05:41:09;;;;;;;;;;;;;;;;;;5032976;28;19911;-56
2021/04/23 05:43:35;;;;;;;;;;;;;;;;;;5030999;28;19905;-57
2021/04/23 05:46:01;;;;;;;;;;;;;;;;;;5032738;28;19905;-57
2021/04/23 05:48:27;;;;;;;;;;;;;;;;;;5026164;28;20274;-57
2021/04/23 05:50:53;;;;;;;;;;;;;;;;;;5032726;28;19905;-56
2021/04/23 05:53:19;;;;;;;;;;;;;;;;;;5033049;28;19909;-57
2021/04/23 05:55:45;;;;;;;;;;;;;;;;;;5032411;28;19924;-56
2021/04/23 05:58:11;;;;;;;;;;;;;;;;;;5032840;28;19905;-56
2021/04/23 06:00:37;;;;;;;;;;;;;;;;;;5028397;28;20260;-56
2021/04/23 06:03:03;;;;;;;;;;;;;;;;;;5030441;28;19915;-57
2021/04/23 06:05:29;;;;;;;;;;;;;;;;;;5037586;28;20308;-57
2021/04/23 06:07:55;;;;;;;;;;;;;;;;;;5037800;28;19913;-56
2021/04/23 06:10:21;;;;;;;;;;;;;;;;;;5040203;28;20279;-56
2021/04/23 06:12:47;;;;;;;;;;;;;;;;;;5033197;28;19905;-56
2021/04/23 06:15:13;;;;;;;;;;;;;;;;;;5044996;28;19920;-56
2021/04/23 06:17:39;;;;;;;;;;;;;;;;;;5045735;28;20303;-56
2021/04/23 06:20:05;;;;;;;;;;;;;;;;;;5043730;28;19905;-57
2021/04/23 06:22:31;;;;;;;;;;;;;;;;;;5037150;28;19909;-57
2021/04/23 06:24:57;;;;;;;;;;;;;;;;;;5032548;28;19905;-56
2021/04/23 06:27:23;;;;;;;;;;;;;;;;;;5035876;28;20317;-55
2021/04/23 06:29:51;;;;;;;;;;;;;;;;;;5036517;28;19905;-56
2021/04/23 06:32:17;;;;;;;;;;;;;;;;;;5036376;28;19912;-56
2021/04/23 06:34:43;;;;;;;;;;;;;;;;;;5036311;28;19925;-56
2021/04/23 06:37:08;;;;;;;;;;;;;;;;;;5036280;28;20267;-56
2021/04/23 06:39:34;;;;;;;;;;;;;;;;;;5035995;28;19952;-56
2021/04/23 06:42:00;;;;;;;;;;;;;;;;;;5036607;28;19959;-56
2021/04/23 06:44:27;;;;;;;;;;;;;;;;;;5036191;28;19909;-59
2021/04/23 06:46:53;;;;;;;;;;;;;;;;;;5036078;28;19911;-56
2021/04/23 06:49:19;;;;;;;;;;;;;;;;;;5036051;28;20282;-56
2021/04/23 06:51:45;;;;;;;;;;;;;;;;;;5036083;28;19919;-57
2021/04/23 06:54:11;;;;;;;;;;;;;;;;;;5036059;28;19909;-56
2021/04/23 06:56:37;;;;;;;;;;;;;;;;;;5036285;28;20279;-57
2021/04/23 06:59:03;;;;;;;;;;;;;;;;;;5035702;28;19958;-56
2021/04/23 07:01:29;;;;;;;;;;;;;;;;;;5035979;28;20370;-56
2021/04/23 07:03:55;;;;;;;;;;;;;;;;;;5035713;28;20335;-56
2021/04/23 07:06:21;;;;;;;;;;;;;;;;;;5035662;28;19921;-56
2021/04/23 07:08:47;;;;;;;;;;;;;;;;;;5035563;28;19905;-55
2021/04/23 07:11:12;;;;;;;;;;;;;;;;;;5035715;28;19905;-54
2021/04/23 07:13:38;;;;;;;;;;;;;;;;;;5035838;28;19915;-56
2021/04/23 07:16:04;;;;;;;;;;;;;;;;;;5035110;28;19960;-56
2021/04/23 07:18:30;;;;;;;;;;;;;;;;;;5035931;28;19905;-56
2021/04/23 07:20:56;;;;;;;;;;;;;;;;;;5035144;28;20390;-56
2021/04/23 07:23:22;;;;;;;;;;;;;;;;;;5035676;28;20275;-56
2021/04/23 07:25:48;;;;;;;;;;;;;;;;;;5035571;28;19916;-56
2021/04/23 07:28:14;;;;;;;;;;;;;;;;;;5035270;28;20347;-56
2021/04/23 07:30:40;;;;;;;;;;;;;;;;;;5035145;28;19912;-56
2021/04/23 07:33:08;;;;;;;;;;;;;;;;;;5035370;28;19905;-56
2021/04/23 07:35:34;;;;;;;;;;;;;;;;;;5035294;28;19917;-56
2021/04/23 07:38:00;;;;;;;;;;;;;;;;;;5034180;28;19909;-57
2021/04/23 07:40:26;;;;;;;;;;;;;;;;;;5035638;28;19928;-57
2021/04/23 07:42:51;;;;;;;;;;;;;;;;;;5035734;28;19901;-57
2021/04/23 07:45:17;;;;;;;;;;;;;;;;;;5035771;28;19916;-57
2021/04/23 07:47:44;;;;;;;;;;;;;;;;;;5035253;28;19905;-56
2021/04/23 07:50:09;;;;;;;;;;;;;;;;;;5017670;28;19984;-56
2021/04/23 07:52:35;;;;;;;;;;;;;;;;;;5035494;28;20312;-55
2021/04/23 07:55:02;;;;;;;;;;;;;;;;;;5035216;28;19963;-56
2021/04/23 07:57:28;;;;;;;;;;;;;;;;;;5035437;28;19909;-57
2021/04/23 07:59:54;;;;;;;;;;;;;;;;;;5035201;28;20004;-57
2021/04/23 08:02:20;;;;;;;;;;;;;;;;;;5035427;28;19909;-57
2021/04/23 08:04:46;;;;;;;;;;;;;;;;;;5035972;28;19909;-61
2021/04/23 08:07:12;;;;;;;;;;;;;;;;;;5037715;28;19960;-58
2021/04/23 08:09:39;;;;;;;;;;;;;;;;;;5043431;28;19971;-57
2021/04/23 08:12:05;;;;;;;;;;;;;;;;;;5053611;28;20366;-57
2021/04/23 08:14:31;;;;;;;;;;;;;;;;;;5035378;28;19913;-56
2021/04/23 08:16:57;;;;;;;;;;;;;;;;;;5054360;28;19905;-57
2021/04/23 08:19:23;;;;;;;;;;;;;;;;;;5054265;28;20393;-56
2021/04/23 08:21:49;;;;;;;;;;;;;;;;;;5036549;28;19909;-57
2021/04/23 08:24:15;;;;;;;;;;;;;;;;;;5025984;28;19916;-57
2021/04/23 08:26:42;;;;;;;;;;;;;;;;;;5017719;28;19909;-57
2021/04/23 08:29:10;;;;;;;;;;;;;;;;;;5015591;28;19914;-56
2021/04/23 08:31:36;;;;;;;;;;;;;;;;;;5014943;28;19906;-57
2021/04/23 08:34:02;;;;;;;;;;;;;;;;;;5014753;28;19910;-56
2021/04/23 08:36:28;;;;;;;;;;;;;;;;;;5014153;28;19922;-57
2021/04/23 08:38:54;;;;;;;;;;;;;;;;;;5016163;28;19905;-57
2021/04/23 08:41:20;;;;;;;;;;;;;;;;;;5015879;28;20334;-56
2021/04/23 08:43:46;;;;;;;;;;;;;;;;;;5016493;28;19912;-56
2021/04/23 08:46:12;;;;;;;;;;;;;;;;;;5022279;28;20266;-56
2021/04/23 08:48:38;;;;;;;;;;;;;;;;;;5034208;28;19971;-56
2021/04/23 08:51:04;;;;;;;;;;;;;;;;;;5031370;28;19909;-56
2021/04/23 08:53:30;;;;;;;;;;;;;;;;;;5018301;28;19916;-56
2021/04/23 08:55:56;;;;;;;;;;;;;;;;;;5017960;28;19913;-56
2021/04/23 08:58:22;;;;;;;;;;;;;;;;;;5014131;28;19993;-56
2021/04/23 09:00:47;;;;;;;;;;;;;;;;;;5016939;28;19910;-56
2021/04/23 09:03:18;;;;;;;;;;;;;;;;;;5014112;28;19913;-56
2021/04/23 09:05:44;;;;;;;;;;;;;;;;;;5014361;28;19928;-57
2021/04/23 09:08:11;;;;;;;;;;;;;;;;;;5033731;28;20351;-56
2021/04/23 09:10:47;;;;;;;;;;;;;;;;;;5092666;27;20366;-56
2021/04/23 09:13:13;;;;;;;;;;;;;;;;;;5109310;28;19912;-56
2021/04/23 09:15:39;;;;;;;;;;;;;;;;;;5108766;28;19919;-57
2021/04/23 09:18:05;;;;;;;;;;;;;;;;;;5094851;28;19961;-57
2021/04/23 09:20:31;;;;;;;;;;;;;;;;;;5099954;28;19912;-57
2021/04/23 09:22:57;;;;;;;;;;;;;;;;;;5093221;28;19913;-56
2021/04/23 09:25:23;;;;;;;;;;;;;;;;;;5092125;28;20336;-56
2021/04/23 09:27:49;;;;;;;;;;;;;;;;;;5122180;27;19909;-57
2021/04/23 09:30:15;;;;;;;;;;;;;;;;;;5095220;28;19928;-57
2021/04/23 09:32:41;;;;;;;;;;;;;;;;;;5094890;28;19961;-56
2021/04/23 09:35:07;;;;;;;;;;;;;;;;;;5093485;28;20327;-57
2021/04/23 09:37:33;;;;;;;;;;;;;;;;;;5092409;28;20054;-57
2021/04/23 09:39:59;;;;;;;;;;;;;;;;;;5090173;28;20029;-56
2021/04/23 09:42:25;;;;;;;;;;;;;;;;;;5089957;28;20370;-57
2021/04/23 09:44:50;;;;;;;;;;;;;;;;;;5089755;28;19913;-57
2021/04/23 09:47:18;;;;;;;;;;;;;;;;;;5089457;28;19923;-56
2021/04/23 09:49:44;;;;;;;;;;;;;;;;;;5097397;28;19916;-56
2021/04/23 09:52:10;;;;;;;;;;;;;;;;;;5094259;28;19915;-57
2021/04/23 09:54:36;;;;;;;;;;;;;;;;;;5092506;28;19919;-58
2021/04/23 09:57:02;;;;;;;;;;;;;;;;;;5093307;28;19964;-57
2021/04/23 09:59:28;;;;;;;;;;;;;;;;;;5097530;28;20317;-58
2021/04/23 10:01:54;;;;;;;;;;;;;;;;;;5103921;28;19916;-57
2021/04/23 10:04:20;;;;;;;;;;;;;;;;;;5104273;28;19916;-57
2021/04/23 10:06:46;;;;;;;;;;;;;;;;;;5088909;28;19956;-57
2021/04/23 10:09:12;;;;;;;;;;;;;;;;;;5087443;28;19966;-56
2021/04/23 10:11:38;;;;;;;;;;;;;;;;;;5089412;28;19912;-62
2021/04/23 10:14:04;;;;;;;;;;;;;;;;;;5091826;28;19912;-57
2021/04/23 10:16:29;;;;;;;;;;;;;;;;;;5091994;28;20416;-58
2021/04/23 10:18:55;;;;;;;;;;;;;;;;;;5101986;28;19908;-67
2021/04/23 10:21:21;;;;;;;;;;;;;;;;;;5093643;28;19920;-57
2021/04/23 10:23:47;;;;;;;;;;;;;;;;;;5088526;28;19908;-58
2021/04/23 10:26:13;;;;;;;;;;;;;;;;;;5075592;28;20042;-57
2021/04/23 10:28:39;;;;;;;;;;;;;;;;;;5079242;28;19975;-56
2021/04/23 10:31:05;;;;;;;;;;;;;;;;;;5074556;28;20424;-57
2021/04/23 10:33:32;;;;;;;;;;;;;;;;;;5077246;28;19908;-58
2021/04/23 10:35:59;;;;;;;;;;;;;;;;;;5075587;28;19909;-57
2021/04/23 10:38:25;;;;;;;;;;;;;;;;;;5078052;28;19932;-58
2021/04/23 10:40:51;;;;;;;;;;;;;;;;;;5094395;28;20367;-57
2021/04/23 10:43:17;;;;;;;;;;;;;;;;;;5094671;28;19991;-57
2021/04/23 10:45:46;;;;;;;;;;;;;;;;;;5094648;28;19912;-57
2021/04/23 10:48:12;;;;;;;;;;;;;;;;;;5094525;28;19912;-57
2021/04/23 10:50:38;;;;;;;;;;;;;;;;;;5093664;28;20014;-57
2021/04/23 10:53:04;;;;;;;;;;;;;;;;;;5094698;28;19916;-56
2021/04/23 10:55:30;;;;;;;;;;;;;;;;;;5093635;28;20338;-57
2021/04/23 10:57:56;;;;;;;;;;;;;;;;;;5094204;28;19963;-56
2021/04/23 11:00:22;;;;;;;;;;;;;;;;;;5096356;28;19942;-62
2021/04/23 11:02:48;;;;;;;;;;;;;;;;;;5094078;28;19916;-63
2021/04/23 11:05:14;;;;;;;;;;;;;;;;;;5076181;28;19909;-61
2021/04/23 11:07:40;;;;;;;;;;;;;;;;;;5075700;28;19915;-62
2021/04/23 11:10:08;;;;;;;;;;;;;;;;;;5094233;28;20293;-61
2021/04/23 11:12:34;;;;;;;;;;;;;;;;;;5094400;28;19916;-62
2021/04/23 11:15:00;;;;;;;;;;;;;;;;;;5094402;28;19908;-62
2021/04/23 11:17:31;;;;;;;;;;;;;;;;;;5076077;28;19923;-61
2021/04/23 11:19:57;;;;;;;;;;;;;;;;;;5113389;28;19914;-61
2021/04/23 11:22:23;;;;;;;;;;;;;;;;;;5115106;28;19994;-62
2021/04/23 11:24:49;;;;;;;;;;;;;;;;;;5114348;28;19916;-61
2021/04/23 11:27:15;;;;;;;;;;;;;;;;;;5118901;27;19911;-63
2021/04/23 11:29:41;;;;;;;;;;;;;;;;;;5119262;27;20407;-62
2021/04/23 11:32:07;;;;;;;;;;;;;;;;;;5113906;28;19908;-62
2021/04/23 11:34:37;;;;;;;;;;;;;;;;;;5114238;28;19916;-61
2021/04/23 11:37:03;;;;;;;;;;;;;;;;;;5100217;28;19911;-61
2021/04/23 11:39:29;;;;;;;;;;;;;;;;;;5114216;28;20394;-62
2021/04/23 11:41:55;;;;;;;;;;;;;;;;;;5114407;28;19919;-62
2021/04/23 11:44:21;;;;;;;;;;;;;;;;;;5113892;28;19986;-62
2021/04/23 11:46:47;;;;;;;;;;;;;;;;;;5105659;28;19946;-62
2021/04/23 11:49:12;;;;;;;;;;;;;;;;;;5102625;28;19964;-60
2021/04/23 11:51:38;;;;;;;;;;;;;;;;;;5105083;28;19988;-61
2021/04/23 11:54:04;;;;;;;;;;;;;;;;;;5103446;28;19959;-60
2021/04/23 11:56:30;;;;;;;;;;;;;;;;;;5104810;28;19979;-61
2021/04/23 11:58:56;;;;;;;;;;;;;;;;;;5132737;27;20383;-61
2021/04/23 12:01:22;;;;;;;;;;;;;;;;;;5103114;28;19947;-66
2021/04/23 12:03:48;;;;;;;;;;;;;;;;;;5086608;28;19954;-62
2021/04/23 12:06:14;;;;;;;;;;;;;;;;;;5107741;28;19915;-64
2021/04/23 12:08:40;;;;;;;;;;;;;;;;;;5115494;28;19915;-61
2021/04/23 12:11:06;;;;;;;;;;;;;;;;;;5111870;28;20586;-63
2021/04/23 12:13:32;;;;;;;;;;;;;;;;;;5105628;28;19953;-61
2021/04/23 12:15:58;;;;;;;;;;;;;;;;;;5104353;28;19912;-63
2021/04/23 12:18:24;;;;;;;;;;;;;;;;;;5113079;28;20430;-61
2021/04/23 12:20:51;;;;;;;;;;;;;;;;;;5110714;28;19912;-59
2021/04/23 12:23:17;;;;;;;;;;;;;;;;;;5093591;28;19912;-62
2021/04/23 12:25:42;;;;;;;;;;;;;;;;;;5106748;28;20362;-62
2021/04/23 12:28:08;;;;;;;;;;;;;;;;;;5094752;27;19912;-62
2021/04/23 12:30:34;;;;;;;;;;;;;;;;;;5092226;28;19923;-62
2021/04/23 12:33:00;;;;;;;;;;;;;;;;;;5100635;28;20011;-62
2021/04/23 12:35:26;;;;;;;;;;;;;;;;;;5099001;28;19963;-61
2021/04/23 12:37:52;;;;;;;;;;;;;;;;;;5092755;28;19962;-59
2021/04/23 12:40:18;;;;;;;;;;;;;;;;;;5092641;28;20386;-59
2021/04/23 12:42:44;;;;;;;;;;;;;;;;;;5092696;28;20428;-61
2021/04/23 12:45:13;;;;;;;;;;;;;;;;;;5092134;28;19916;-66
2021/04/23 12:47:39;;;;;;;;;;;;;;;;;;5093086;28;19919;-62
2021/04/23 12:50:05;;;;;;;;;;;;;;;;;;5100242;28;20412;-62
2021/04/23 12:52:33;;;;;;;;;;;;;;;;;;5099225;28;20328;-59
2021/04/23 12:54:59;;;;;;;;;;;;;;;;;;5091996;28;20038;-61
2021/04/23 12:57:24;;;;;;;;;;;;;;;;;;5096799;27;20365;-62
2021/04/23 12:59:50;;;;;;;;;;;;;;;;;;5074037;28;19958;-63
2021/04/23 13:02:18;;;;;;;;;;;;;;;;;;5093095;28;19935;-64
2021/04/23 13:04:44;;;;;;;;;;;;;;;;;;5093235;28;19963;-61
2021/04/23 13:07:10;;;;;;;;;;;;;;;;;;5092955;28;19912;-61
2021/04/23 13:09:36;;;;;;;;;;;;;;;;;;5092672;28;20439;-62
2021/04/23 13:12:02;;;;;;;;;;;;;;;;;;5092035;28;19958;-62
2021/04/23 13:14:28;;;;;;;;;;;;;;;;;;5092812;28;19912;-62
2021/04/23 13:16:54;;;;;;;;;;;;;;;;;;5092059;28;19909;-62
2021/04/23 13:19:20;;;;;;;;;;;;;;;;;;5091030;28;20316;-62
2021/04/23 13:21:46;;;;;;;;;;;;;;;;;;5091846;28;19916;-62
2021/04/23 13:24:12;;;;;;;;;;;;;;;;;;5081535;28;19917;-63
2021/04/23 13:26:38;;;;;;;;;;;;;;;;;;5098491;28;20369;-62
2021/04/23 13:29:06;;;;;;;;;;;;;;;;;;5099966;28;19916;-64
2021/04/23 13:31:32;;;;;;;;;;;;;;;;;;5086073;28;19907;-63
2021/04/23 13:33:58;;;;;;;;;;;;;;;;;;5092493;28;19991;-62
2021/04/23 13:36:25;;;;;;;;;;;;;;;;;;5092094;28;19927;-62
2021/04/23 13:38:51;;;;;;;;;;;;;;;;;;5091242;28;19948;-62
2021/04/23 13:41:17;;;;;;;;;;;;;;;;;;5091539;28;19912;-63
2021/04/23 13:43:43;;;;;;;;;;;;;;;;;;5091695;28;19923;-68
2021/04/23 13:46:09;;;;;;;;;;;;;;;;;;5106025;28;19912;-65
2021/04/23 13:48:35;;;;;;;;;;;;;;;;;;5092111;28;19912;-65
2021/04/23 13:51:01;;;;;;;;;;;;;;;;;;5092779;28;19912;-64
2021/04/23 13:53:27;;;;;;;;;;;;;;;;;;5092021;28;19959;-65
2021/04/23 13:55:53;;;;;;;;;;;;;;;;;;5093008;28;19909;-67
2021/04/23 13:58:19;;;;;;;;;;;;;;;;;;5102891;27;19915;-63
2021/04/23 14:00:45;;;;;;;;;;;;;;;;;;5095838;28;19908;-65
2021/04/23 14:03:10;;;;;;;;;;;;;;;;;;5096043;28;20277;-66
2021/04/23 14:05:36;;;;;;;;;;;;;;;;;;5095240;28;19912;-66
2021/04/23 14:08:02;;;;;;;;;;;;;;;;;;5096619;28;20374;-67
2021/04/23 14:10:28;;;;;;;;;;;;;;;;;;5095488;28;19930;-61
2021/04/23 14:12:54;;;;;;;;;;;;;;;;;;5095841;28;19915;-61
2021/04/23 14:15:20;;;;;;;;;;;;;;;;;;5095302;28;19991;-61
2021/04/23 14:17:47;;;;;;;;;;;;;;;;;;5095955;28;20035;-62
2021/04/23 14:20:13;;;;;;;;;;;;;;;;;;5095168;28;19908;-62
2021/04/23 14:22:39;;;;;;;;;;;;;;;;;;5099444;28;19912;-62
2021/04/23 14:25:05;;;;;;;;;;;;;;;;;;5110608;28;19908;-62
2021/04/23 14:27:31;;;;;;;;;;;;;;;;;;5095355;28;19955;-62
2021/04/23 14:29:57;;;;;;;;;;;;;;;;;;5095292;28;19916;-62
2021/04/23 14:32:23;;;;;;;;;;;;;;;;;;5094995;28;20287;-62
2021/04/23 14:34:49;;;;;;;;;;;;;;;;;;5095330;28;20329;-62
2021/04/23 14:37:17;;;;;;;;;;;;;;;;;;5095065;28;19915;-62
2021/04/23 14:39:43;;;;;;;;;;;;;;;;;;5077141;28;19939;-63
2021/04/23 14:42:09;;;;;;;;;;;;;;;;;;5094589;28;20361;-60
2021/04/23 14:44:35;;;;;;;;;;;;;;;;;;5076736;28;19919;-61
2021/04/23 14:47:01;;;;;;;;;;;;;;;;;;5077071;28;19938;-62
2021/04/23 14:49:27;;;;;;;;;;;;;;;;;;5095191;28;20320;-62
2021/04/23 14:51:54;;;;;;;;;;;;;;;;;;5094619;28;19915;-62
2021/04/23 14:54:20;;;;;;;;;;;;;;;;;;5094645;28;19919;-63
2021/04/23 14:56:46;;;;;;;;;;;;;;;;;;5095616;28;19912;-62
2021/04/23 14:59:12;;;;;;;;;;;;;;;;;;5094084;28;19915;-62
2021/04/23 15:01:38;;;;;;;;;;;;;;;;;;5095077;28;19908;-62
2021/04/23 15:04:04;;;;;;;;;;;;;;;;;;5094828;28;19912;-63
2021/04/23 15:06:30;;;;;;;;;;;;;;;;;;5114734;28;19908;-62
2021/04/23 15:08:56;;;;;;;;;;;;;;;;;;5114678;28;20393;-62
2021/04/23 15:11:22;;;;;;;;;;;;;;;;;;5114833;28;19908;-63
2021/04/23 15:13:48;;;;;;;;;;;;;;;;;;5114863;28;19915;-61
2021/04/23 15:16:14;;;;;;;;;;;;;;;;;;5114862;28;19907;-62
2021/04/23 15:18:43;;;;;;;;;;;;;;;;;;5114700;28;19914;-61
2021/04/23 15:21:09;;;;;;;;;;;;;;;;;;5114485;28;19908;-61
2021/04/23 15:23:34;;;;;;;;;;;;;;;;;;5114902;28;20358;-62
2021/04/23 15:26:00;;;;;;;;;;;;;;;;;;5105691;28;19908;-60
2021/04/23 15:28:26;;;;;;;;;;;;;;;;;;5094237;28;19959;-61
2021/04/23 15:30:52;;;;;;;;;;;;;;;;;;5075746;28;19916;-61
2021/04/23 15:33:18;;;;;;;;;;;;;;;;;;5094550;28;19908;-62
2021/04/23 15:35:44;;;;;;;;;;;;;;;;;;5093950;28;19912;-60
2021/04/23 15:38:10;;;;;;;;;;;;;;;;;;5094151;28;20282;-62
2021/04/23 15:40:36;;;;;;;;;;;;;;;;;;5093789;28;19924;-61
2021/04/23 15:43:02;;;;;;;;;;;;;;;;;;5093974;28;19919;-57
2021/04/23 15:45:28;;;;;;;;;;;;;;;;;;5093820;28;19908;-60
2021/04/23 15:47:54;;;;;;;;;;;;;;;;;;5093662;28;19908;-61
2021/04/23 15:50:20;;;;;;;;;;;;;;;;;;5075598;28;19916;-61
2021/04/23 15:52:46;;;;;;;;;;;;;;;;;;5093731;28;19908;-61
2021/04/23 15:55:12;;;;;;;;;;;;;;;;;;5093802;28;19908;-61
2021/04/23 15:57:38;;;;;;;;;;;;;;;;;;5094060;28;19923;-64
2021/04/23 16:00:04;;;;;;;;;;;;;;;;;;5075837;28;19909;-62
2021/04/23 16:02:30;;;;;;;;;;;;;;;;;;5093732;28;20358;-61
2021/04/23 16:04:56;;;;;;;;;;;;;;;;;;5082579;28;19915;-60
2021/04/23 16:07:22;;;;;;;;;;;;;;;;;;5114187;28;19915;-60
2021/04/23 16:09:48;;;;;;;;;;;;;;;;;;5114035;28;19924;-62
2021/04/23 16:12:14;;;;;;;;;;;;;;;;;;5114806;28;20351;-61
2021/04/23 16:14:40;;;;;;;;;;;;;;;;;;5113932;28;19907;-61
2021/04/23 16:17:06;;;;;;;;;;;;;;;;;;5114193;28;19915;-60
2021/04/23 16:19:32;;;;;;;;;;;;;;;;;;5113545;28;19908;-60
2021/04/23 16:21:57;;;;;;;;;;;;;;;;;;5114259;28;19908;-60
2021/04/23 16:24:23;;;;;;;;;;;;;;;;;;5114378;28;19908;-59
2021/04/23 16:26:49;;;;;;;;;;;;;;;;;;5114029;28;19951;-61
2021/04/23 16:29:15;;;;;;;;;;;;;;;;;;5114643;28;20333;-63
2021/04/23 16:31:41;;;;;;;;;;;;;;;;;;5115515;28;20278;-64
2021/04/23 16:34:07;;;;;;;;;;;;;;;;;;5095547;28;20349;-58
2021/04/23 16:36:33;;;;;;;;;;;;;;;;;;5106053;28;19970;-63